createdAt,value
2018-05-24T00:00:36.962Z,96.60
2018-05-24T00:03:04.509Z,96.60
2018-05-24T00:05:32.009Z,96.60
2018-05-24T00:07:59.600Z,96.60
2018-05-24T00:10:27.235Z,96.50
2018-05-24T00:12:54.765Z,96.50
2018-05-24T00:15:22.350Z,96.50
2018-05-24T00:17:49.881Z,96.40
2018-05-24T00:20:17.398Z,96.40
2018-05-24T00:22:44.929Z,96.50
2018-05-24T00:25:12.438Z,96.60
2018-05-24T00:27:40.382Z,96.60
2018-05-24T00:30:07.893Z,96.60
2018-05-24T00:32:35.425Z,96.60
2018-05-24T00:35:02.933Z,96.70
2018-05-24T00:37:30.477Z,96.70
2018-05-24T00:39:57.994Z,96.50
2018-05-24T00:42:25.559Z,96.50
2018-05-24T00:44:53.070Z,96.70
2018-05-24T00:47:20.680Z,96.70
2018-05-24T00:49:48.181Z,96.70
2018-05-24T00:52:15.727Z,96.70
2018-05-24T00:54:43.549Z,96.60
2018-05-24T00:57:11.004Z,96.60
2018-05-24T00:59:38.509Z,96.60
2018-05-24T01:02:06.037Z,96.60
2018-05-24T01:04:33.574Z,96.70
2018-05-24T01:07:01.079Z,96.70
2018-05-24T01:09:28.621Z,96.60
2018-05-24T01:11:56.126Z,96.60
2018-05-24T01:14:23.667Z,96.60
2018-05-24T01:16:51.176Z,96.60
2018-05-24T01:19:18.811Z,96.60
2018-05-24T01:24:18.678Z,96.50
2018-05-24T01:26:46.197Z,96.50
2018-05-24T01:29:13.739Z,96.50
2018-05-24T01:31:41.253Z,96.50
2018-05-24T01:34:08.789Z,96.60
2018-05-24T01:36:48.125Z,96.60
2018-05-24T01:39:15.649Z,96.60
2018-05-24T01:41:43.157Z,96.50
2018-05-24T01:44:11.101Z,96.50
2018-05-24T01:46:38.827Z,96.50
2018-05-24T01:49:06.362Z,96.60
2018-05-24T01:51:33.914Z,96.60
2018-05-24T01:54:01.438Z,96.60
2018-05-24T01:56:28.935Z,96.60
2018-05-24T01:58:56.474Z,96.60
2018-05-24T02:01:23.989Z,96.70
2018-05-24T02:03:51.540Z,96.60
2018-05-24T02:06:19.037Z,96.70
2018-05-24T02:08:46.578Z,96.70
2018-05-24T02:11:14.489Z,96.70
2018-05-24T02:13:42.152Z,96.60
2018-05-24T02:16:09.656Z,96.50
2018-05-24T02:18:37.192Z,96.60
2018-05-24T02:21:04.817Z,96.60
2018-05-24T02:23:32.325Z,96.50
2018-05-24T02:26:00.223Z,96.50
2018-05-24T02:28:27.729Z,96.50
2018-05-24T02:30:55.263Z,96.60
2018-05-24T02:33:22.920Z,96.60
2018-05-24T02:35:50.603Z,96.60
2018-05-24T02:38:17.978Z,96.60
2018-05-24T02:40:45.519Z,96.60
2018-05-24T02:43:13.029Z,96.50
2018-05-24T02:45:40.557Z,96.60
2018-05-24T02:48:08.452Z,96.70
2018-05-24T02:50:36.010Z,96.70
2018-05-24T02:53:03.527Z,96.60
2018-05-24T02:55:31.084Z,96.70
2018-05-24T02:57:59.088Z,96.70
2018-05-24T03:00:26.614Z,96.70
2018-05-24T03:02:55.521Z,96.70
2018-05-24T03:05:23.079Z,96.70
2018-05-24T03:07:50.597Z,96.70
2018-05-24T03:10:19.058Z,96.70
2018-05-24T03:12:46.578Z,96.70
2018-05-24T03:15:14.109Z,96.70
2018-05-24T03:17:41.793Z,96.70
2018-05-24T03:20:09.314Z,96.70
2018-05-24T03:22:36.818Z,96.70
2018-05-24T03:25:04.407Z,96.60
2018-05-24T03:27:31.898Z,96.70
2018-05-24T03:30:00.421Z,96.70
2018-05-24T03:32:27.934Z,96.70
2018-05-24T03:34:55.469Z,96.60
2018-05-24T03:37:23.360Z,96.60
2018-05-24T03:39:50.893Z,96.60
2018-05-24T03:42:18.407Z,96.70
2018-05-24T03:44:45.941Z,96.60
2018-05-24T03:47:13.499Z,96.60
2018-05-24T03:49:41.133Z,96.50
2018-05-24T03:52:08.807Z,96.50
2018-05-24T03:54:36.356Z,96.50
2018-05-24T03:57:03.856Z,96.50
2018-05-24T04:02:50.962Z,96.50
2018-05-24T04:05:18.485Z,96.50
2018-05-24T04:07:46.128Z,96.40
2018-05-24T04:10:13.813Z,96.50
2018-05-24T04:12:41.321Z,96.50
2018-05-24T04:15:08.931Z,96.50
2018-05-24T04:17:36.472Z,96.50
2018-05-24T04:20:03.981Z,96.50
2018-05-24T04:22:31.514Z,96.50
2018-05-24T04:24:59.013Z,96.60
2018-05-24T04:27:26.557Z,96.50
2018-05-24T04:29:54.057Z,96.10
2018-05-24T04:32:21.597Z,96.20
2018-05-24T04:34:49.505Z,96.00
2018-05-24T04:37:17.028Z,96.00
2018-05-24T04:39:44.534Z,95.90
2018-05-24T04:42:12.073Z,96.10
2018-05-24T04:44:40.248Z,96.20
2018-05-24T04:47:08.417Z,96.20
2018-05-24T04:49:35.926Z,96.20
2018-05-24T04:52:03.457Z,96.40
2018-05-24T04:54:30.966Z,96.30
2018-05-24T04:56:58.529Z,96.00
2018-05-24T04:59:26.182Z,96.20
2018-05-24T05:01:53.713Z,96.20
2018-05-24T05:04:21.208Z,96.40
2018-05-24T05:06:48.952Z,96.40
2018-05-24T05:09:17.442Z,96.40
2018-05-24T05:11:44.987Z,96.20
2018-05-24T05:14:12.500Z,95.80
2018-05-24T05:16:40.045Z,95.90
2018-05-24T05:19:07.554Z,95.40
2018-05-24T05:21:35.109Z,95.70
2018-05-24T05:24:02.770Z,95.40
2018-05-24T05:26:30.300Z,95.60
2018-05-24T05:28:58.204Z,95.10
2018-05-24T05:31:25.733Z,95.10
2018-05-24T05:33:53.254Z,95.10
2018-05-24T05:36:21.064Z,95.50
2018-05-24T05:38:48.565Z,95.30
2018-05-24T05:41:16.179Z,95.30
2018-05-24T05:43:43.838Z,95.50
2018-05-24T05:46:11.357Z,95.50
2018-05-24T05:48:39.286Z,95.50
2018-05-24T05:51:06.789Z,95.50
2018-05-24T05:53:34.463Z,95.40
2018-05-24T05:56:01.973Z,95.40
2018-05-24T05:58:29.506Z,95.50
2018-05-24T06:00:57.030Z,95.70
2018-05-24T06:03:24.570Z,95.60
2018-05-24T06:05:52.083Z,95.50
2018-05-24T06:08:19.641Z,95.60
2018-05-24T06:10:47.141Z,95.70
2018-05-24T06:13:14.677Z,95.50
2018-05-24T06:15:42.357Z,95.40
2018-05-24T06:18:09.993Z,95.10
2018-05-24T06:20:37.621Z,95.10
2018-05-24T06:23:05.150Z,95.20
2018-05-24T06:25:32.665Z,95.10
2018-05-24T06:28:00.225Z,94.90
2018-05-24T06:30:27.822Z,95.10
2018-05-24T06:32:55.354Z,95.00
2018-05-24T06:35:23.029Z,95.00
2018-05-24T06:37:50.551Z,95.00
2018-05-24T06:40:19.185Z,94.90
2018-05-24T06:42:46.721Z,94.90
2018-05-24T06:45:14.271Z,95.10
2018-05-24T06:47:41.806Z,95.30
2018-05-24T06:50:10.584Z,94.70
2018-05-24T06:52:38.123Z,94.70
2018-05-24T06:55:05.638Z,94.70
2018-05-24T06:57:33.162Z,94.70
2018-05-24T07:00:00.815Z,94.70
2018-05-24T07:02:28.211Z,94.80
2018-05-24T07:04:55.717Z,95.00
2018-05-24T07:07:23.251Z,94.90
2018-05-24T07:09:50.766Z,94.40
2018-05-24T07:12:18.319Z,94.00
2018-05-24T07:14:45.858Z,93.90
2018-05-24T07:17:13.370Z,94.00
2018-05-24T07:19:40.898Z,93.90
2018-05-24T07:22:08.399Z,94.00
2018-05-24T07:24:36.377Z,93.70
2018-05-24T07:27:03.849Z,93.60
2018-05-24T07:29:31.378Z,94.10
2018-05-24T07:31:59.289Z,93.80
2018-05-24T07:34:26.824Z,93.70
2018-05-24T07:36:54.335Z,93.60
2018-05-24T07:39:22.273Z,93.20
2018-05-24T07:41:49.789Z,93.20
2018-05-24T07:44:17.339Z,93.70
2018-05-24T07:46:45.746Z,92.70
2018-05-24T07:49:13.284Z,92.70
2018-05-24T07:51:40.789Z,92.90
2018-05-24T07:54:08.314Z,92.90
2018-05-24T07:56:35.814Z,92.60
2018-05-24T07:59:03.374Z,93.40
2018-05-24T08:01:31.143Z,93.10
2018-05-24T08:03:58.646Z,93.10
2018-05-24T08:06:26.180Z,92.60
2018-05-24T08:08:53.710Z,92.20
2018-05-24T08:11:21.621Z,91.60
2018-05-24T08:13:49.380Z,91.50
2018-05-24T08:16:16.893Z,92.10
2018-05-24T08:18:44.838Z,92.00
2018-05-24T08:21:12.335Z,92.00
2018-05-24T08:23:39.865Z,92.20
2018-05-24T08:26:08.803Z,92.40
2018-05-24T08:28:36.345Z,92.40
2018-05-24T08:31:03.854Z,91.90
2018-05-24T08:33:31.385Z,91.70
2018-05-24T08:35:58.893Z,92.10
2018-05-24T08:38:26.579Z,92.30
2018-05-24T08:40:54.105Z,92.50
2018-05-24T08:43:22.038Z,92.30
2018-05-24T08:45:49.745Z,92.30
2018-05-24T08:48:17.289Z,92.60
2018-05-24T08:50:46.474Z,91.70
2018-05-24T08:53:14.022Z,91.70
2018-05-24T08:55:42.031Z,92.40
2018-05-24T08:58:09.697Z,92.40
2018-05-24T09:00:38.182Z,93.10
2018-05-24T09:03:05.842Z,92.80
2018-05-24T09:05:33.384Z,92.00
2018-05-24T09:08:00.891Z,91.50
2018-05-24T09:10:28.421Z,92.00
2018-05-24T09:12:56.044Z,92.10
2018-05-24T09:15:23.575Z,91.20
2018-05-24T09:17:51.474Z,91.20
2018-05-24T09:20:19.097Z,91.20
2018-05-24T09:22:47.510Z,91.20
2018-05-24T09:25:15.374Z,90.40
2018-05-24T09:27:43.022Z,90.40
2018-05-24T09:30:10.703Z,90.50
2018-05-24T09:32:38.353Z,89.90
2018-05-24T09:35:06.003Z,90.10
2018-05-24T09:37:33.516Z,89.20
2018-05-24T09:40:01.444Z,88.50
2018-05-24T09:42:28.953Z,88.50
2018-05-24T09:44:56.481Z,88.40
2018-05-24T09:47:23.984Z,88.50
2018-05-24T09:49:51.525Z,88.50
2018-05-24T09:52:19.117Z,89.20
2018-05-24T09:54:46.645Z,89.40
2018-05-24T09:57:14.308Z,89.90
2018-05-24T09:59:41.981Z,88.90
2018-05-24T10:02:09.489Z,86.50
2018-05-24T10:04:37.092Z,86.30
2018-05-24T10:07:04.551Z,86.60
2018-05-24T10:09:32.077Z,85.40
2018-05-24T10:12:00.074Z,84.90
2018-05-24T10:14:27.718Z,84.90
2018-05-24T10:16:55.225Z,82.00
2018-05-24T10:19:22.773Z,83.00
2018-05-24T10:21:50.494Z,83.00
2018-05-24T10:24:18.002Z,82.90
2018-05-24T10:26:45.570Z,80.40
2018-05-24T10:29:13.334Z,81.10
2018-05-24T10:31:41.261Z,81.20
2018-05-24T10:34:08.762Z,81.20
2018-05-24T10:36:36.295Z,80.10
2018-05-24T10:39:03.813Z,79.90
2018-05-24T10:41:31.509Z,79.90
2018-05-24T10:43:59.213Z,80.90
2018-05-24T10:46:26.753Z,81.70
2018-05-24T10:48:54.325Z,81.50
2018-05-24T10:51:21.958Z,81.60
2018-05-24T10:53:49.449Z,81.90
2018-05-24T10:56:16.998Z,82.60
2018-05-24T10:58:44.504Z,82.10
2018-05-24T11:01:12.049Z,80.80
2018-05-24T11:03:39.548Z,80.80
2018-05-24T11:08:34.733Z,77.60
2018-05-24T11:11:03.352Z,78.10
2018-05-24T11:13:30.877Z,78.50
2018-05-24T11:15:58.424Z,78.10
2018-05-24T11:18:26.026Z,78.20
2018-05-24T11:20:53.561Z,79.10
2018-05-24T11:23:21.465Z,78.90
2018-05-24T11:25:48.989Z,78.90
2018-05-24T11:28:16.671Z,78.60
2018-05-24T11:30:44.201Z,78.80
2018-05-24T11:33:12.181Z,79.20
2018-05-24T11:35:40.283Z,79.10
2018-05-24T11:38:07.785Z,79.60
2018-05-24T11:40:35.718Z,76.90
2018-05-24T11:43:03.258Z,76.90
2018-05-24T11:45:30.896Z,78.20
2018-05-24T11:47:58.556Z,78.80
2018-05-24T11:50:26.106Z,77.80
2018-05-24T11:52:53.658Z,77.50
2018-05-24T11:55:21.169Z,77.80
2018-05-24T11:57:48.701Z,77.60
2018-05-24T12:00:16.208Z,78.90
2018-05-24T12:02:43.748Z,79.50
2018-05-24T12:05:11.655Z,79.10
2018-05-24T12:07:39.185Z,79.10
2018-05-24T12:10:06.872Z,79.10
2018-05-24T12:12:34.397Z,79.60
2018-05-24T12:15:02.362Z,78.50
2018-05-24T12:17:29.857Z,78.40
2018-05-24T12:19:57.353Z,79.20
2018-05-24T12:22:24.882Z,80.40
2018-05-24T12:24:52.431Z,79.60
2018-05-24T12:27:19.973Z,78.50
2018-05-24T12:29:47.489Z,79.20
2018-05-24T12:32:15.026Z,78.30
2018-05-24T12:34:42.535Z,77.80
2018-05-24T12:37:10.099Z,77.40
2018-05-24T12:39:37.741Z,77.40
2018-05-24T12:42:05.277Z,77.60
2018-05-24T12:44:32.795Z,77.60
2018-05-24T12:47:00.335Z,78.30
2018-05-24T12:49:28.384Z,77.70
2018-05-24T12:51:55.919Z,78.00
2018-05-24T12:54:23.613Z,77.80
2018-05-24T12:56:51.166Z,79.50
2018-05-24T12:59:18.669Z,79.50
2018-05-24T13:01:46.214Z,79.80
2018-05-24T13:04:13.787Z,79.50
2018-05-24T13:06:41.329Z,80.10
2018-05-24T13:09:08.833Z,81.00
2018-05-24T13:11:36.361Z,80.80
2018-05-24T13:14:04.337Z,80.00
2018-05-24T13:16:31.865Z,80.00
2018-05-24T13:18:59.379Z,80.00
2018-05-24T13:21:26.913Z,79.50
2018-05-24T13:23:54.413Z,79.00
2018-05-24T13:26:21.922Z,80.00
2018-05-24T13:28:49.456Z,81.20
2018-05-24T13:31:17.345Z,81.00
2018-05-24T13:33:44.874Z,81.00
2018-05-24T13:36:12.377Z,81.30
2018-05-24T13:38:39.911Z,79.80
2018-05-24T13:41:07.473Z,80.10
2018-05-24T13:43:35.205Z,79.80
2018-05-24T13:46:03.106Z,79.20
2018-05-24T13:48:30.635Z,79.20
2018-05-24T13:50:58.133Z,79.90
2018-05-24T13:53:25.669Z,79.70
2018-05-24T13:55:53.277Z,79.50
2018-05-24T13:58:21.212Z,79.60
2018-05-24T14:00:48.715Z,79.50
2018-05-24T14:03:16.265Z,79.60
2018-05-24T14:05:44.166Z,80.40
2018-05-24T14:08:11.693Z,80.40
2018-05-24T14:10:39.190Z,79.60
2018-05-24T14:13:06.728Z,79.90
2018-05-24T14:15:34.237Z,80.30
2018-05-24T14:18:01.761Z,80.40
2018-05-24T14:20:29.269Z,81.60
2018-05-24T14:22:57.201Z,81.80
2018-05-24T14:25:24.921Z,81.80
2018-05-24T14:27:52.584Z,81.60
2018-05-24T14:30:20.089Z,80.20
2018-05-24T14:32:47.697Z,81.40
2018-05-24T14:35:15.197Z,81.50
2018-05-24T14:37:42.737Z,80.60
2018-05-24T14:40:10.263Z,80.20
2018-05-24T14:42:37.836Z,80.10
2018-05-24T14:45:05.338Z,80.00
2018-05-24T14:47:32.873Z,79.60
2018-05-24T14:50:00.381Z,79.50
2018-05-24T14:52:27.909Z,79.80
2018-05-24T14:54:55.604Z,80.40
2018-05-24T14:57:23.133Z,80.80
2018-05-24T14:59:51.030Z,80.00
2018-05-24T15:02:18.538Z,80.00
2018-05-24T15:04:46.492Z,78.90
2018-05-24T15:07:14.409Z,79.00
2018-05-24T15:09:41.933Z,79.00
2018-05-24T15:12:09.448Z,78.90
2018-05-24T15:14:36.981Z,78.40
2018-05-24T15:17:04.535Z,77.80
2018-05-24T15:19:32.069Z,77.30
2018-05-24T15:21:59.584Z,77.70
2018-05-24T15:24:27.177Z,77.40
2018-05-24T15:26:54.682Z,76.30
2018-05-24T15:29:22.218Z,76.50
2018-05-24T15:31:49.716Z,76.00
2018-05-24T15:34:17.253Z,75.70
2018-05-24T15:36:44.777Z,75.60
2018-05-24T15:39:12.309Z,75.20
2018-05-24T15:41:39.813Z,75.90
2018-05-24T15:44:07.338Z,76.10
2018-05-24T15:46:34.844Z,76.00
2018-05-24T15:49:02.387Z,75.90
2018-05-24T15:51:29.892Z,76.50
2018-05-24T15:53:57.432Z,76.70
2018-05-24T15:56:25.333Z,77.60
2018-05-24T15:58:52.856Z,77.60
2018-05-24T16:01:20.750Z,78.60
2018-05-24T16:03:48.310Z,78.30
2018-05-24T16:06:15.822Z,78.40
2018-05-24T16:08:43.401Z,76.20
2018-05-24T16:11:10.961Z,76.10
2018-05-24T16:13:38.489Z,76.20
2018-05-24T16:16:06.393Z,76.90
2018-05-24T16:18:33.923Z,76.90
2018-05-24T16:21:03.170Z,76.90
2018-05-24T16:23:30.703Z,77.60
2018-05-24T16:25:58.205Z,78.50
2018-05-24T16:28:25.755Z,78.90
2018-05-24T16:30:53.665Z,78.90
2018-05-24T16:33:21.182Z,78.80
2018-05-24T16:35:48.713Z,78.90
2018-05-24T16:38:16.209Z,79.10
2018-05-24T16:40:43.754Z,80.20
2018-05-24T16:43:11.265Z,80.40
2018-05-24T16:45:38.892Z,81.20
2018-05-24T16:48:06.417Z,81.10
2018-05-24T16:50:34.142Z,81.60
2018-05-24T16:53:01.660Z,82.00
2018-05-24T16:55:29.594Z,81.90
2018-05-24T16:57:57.305Z,81.90
2018-05-24T17:00:24.855Z,80.90
2018-05-24T17:02:52.423Z,81.10
2018-05-24T17:05:19.976Z,80.20
2018-05-24T17:07:47.532Z,80.50
2018-05-24T17:10:15.085Z,81.50
2018-05-24T17:12:42.594Z,81.90
2018-05-24T17:15:10.255Z,82.70
2018-05-24T17:17:37.781Z,83.00
2018-05-24T17:20:05.420Z,84.30
2018-05-24T17:22:32.940Z,85.20
2018-05-24T17:25:00.526Z,85.50
2018-05-24T17:27:28.032Z,85.30
2018-05-24T17:29:55.571Z,85.50
2018-05-24T17:32:23.103Z,85.70
2018-05-24T17:34:50.762Z,85.50
2018-05-24T17:37:18.417Z,85.30
2018-05-24T17:39:45.949Z,85.70
2018-05-24T17:42:22.342Z,86.10
2018-05-24T17:44:49.873Z,86.10
2018-05-24T17:47:17.447Z,85.90
2018-05-24T17:49:45.381Z,85.90
2018-05-24T17:52:13.277Z,86.00
2018-05-24T17:54:40.834Z,86.00
2018-05-24T17:57:08.493Z,86.20
2018-05-24T17:59:36.028Z,86.20
2018-05-24T18:02:03.542Z,86.50
2018-05-24T18:04:31.055Z,86.50
2018-05-24T18:06:58.594Z,86.20
2018-05-24T18:09:26.157Z,86.10
2018-05-24T18:11:53.665Z,86.60
2018-05-24T18:14:21.290Z,87.00
2018-05-24T18:16:48.846Z,87.00
2018-05-24T18:19:16.341Z,86.50
2018-05-24T18:21:43.874Z,86.60
2018-05-24T18:24:11.377Z,86.80
2018-05-24T18:26:39.296Z,87.00
2018-05-24T18:29:06.810Z,87.00
2018-05-24T18:31:34.349Z,87.20
2018-05-24T18:34:02.337Z,87.60
2018-05-24T18:36:29.876Z,87.70
2018-05-24T18:38:57.769Z,88.20
2018-05-24T18:41:25.306Z,88.30
2018-05-24T18:43:53.680Z,88.30
2018-05-24T18:46:21.254Z,88.60
2018-05-24T18:48:49.405Z,88.90
2018-05-24T18:51:16.932Z,88.90
2018-05-24T18:53:44.465Z,88.90
2018-05-24T18:56:12.024Z,89.50
2018-05-24T18:58:39.524Z,89.80
2018-05-24T19:01:07.063Z,89.80
2018-05-24T19:03:34.985Z,90.00
2018-05-24T19:06:02.533Z,89.90
2018-05-24T19:08:30.031Z,89.90
2018-05-24T19:10:57.628Z,90.20
2018-05-24T19:13:25.162Z,90.20
2018-05-24T19:15:53.089Z,90.30
2018-05-24T19:18:20.620Z,90.30
2018-05-24T19:20:48.178Z,90.40
2018-05-24T19:23:15.725Z,90.40
2018-05-24T19:25:43.390Z,90.40
2018-05-24T19:28:11.236Z,90.40
2018-05-24T19:30:38.761Z,90.40
2018-05-24T19:33:06.266Z,90.40
2018-05-24T19:35:33.781Z,90.40
2018-05-24T19:38:01.321Z,90.50
2018-05-24T19:40:28.817Z,90.60
2018-05-24T19:42:56.353Z,90.60
2018-05-24T19:45:23.868Z,90.60
2018-05-24T19:47:51.397Z,90.50
2018-05-24T19:50:18.995Z,90.10
2018-05-24T19:52:46.594Z,89.50
2018-05-24T19:55:14.110Z,88.10
2018-05-24T19:57:41.641Z,85.40
2018-05-24T20:00:09.147Z,85.50
2018-05-24T20:02:38.362Z,85.50
2018-05-24T20:05:06.641Z,84.00
2018-05-24T20:07:34.202Z,83.10
2018-05-24T20:10:01.706Z,83.70
2018-05-24T20:12:29.246Z,83.90
2018-05-24T20:14:56.769Z,83.20
2018-05-24T20:17:24.297Z,83.20
2018-05-24T20:19:52.286Z,83.30
2018-05-24T20:22:19.813Z,83.10
2018-05-24T20:24:47.345Z,83.70
2018-05-24T20:27:14.873Z,83.10
2018-05-24T20:29:42.380Z,83.40
2018-05-24T20:32:10.372Z,83.90
2018-05-24T20:34:38.032Z,84.10
2018-05-24T20:37:05.567Z,84.20
2018-05-24T20:39:33.462Z,84.60
2018-05-24T20:42:00.987Z,84.90
2018-05-24T20:44:28.488Z,85.10
2018-05-24T20:46:56.026Z,84.70
2018-05-24T20:49:23.565Z,85.30
2018-05-24T20:51:51.089Z,85.50
2018-05-24T20:54:18.686Z,86.20
2018-05-24T20:56:46.218Z,86.20
2018-05-24T20:59:14.120Z,86.60
2018-05-24T21:01:41.689Z,86.60
2018-05-24T21:04:09.214Z,85.90
2018-05-24T21:06:36.729Z,85.40
2018-05-24T21:09:05.077Z,85.30
2018-05-24T21:11:32.578Z,85.80
2018-05-24T21:14:00.550Z,86.60
2018-05-24T21:16:28.033Z,86.60
2018-05-24T21:18:55.562Z,87.40
2018-05-24T21:21:23.073Z,88.30
2018-05-24T21:23:50.604Z,89.20
2018-05-24T21:26:18.250Z,90.10
2018-05-24T21:28:45.902Z,90.20
2018-05-24T21:31:13.411Z,90.50
2018-05-24T21:33:40.940Z,91.00
2018-05-24T21:36:09.389Z,91.10
2018-05-24T21:38:36.917Z,91.30
2018-05-24T21:41:05.255Z,91.30
2018-05-24T21:43:32.788Z,91.30
2018-05-24T21:46:00.346Z,91.30
2018-05-24T21:48:28.012Z,91.40
2018-05-24T21:50:55.658Z,91.60
2018-05-24T21:53:23.197Z,91.60
2018-05-24T21:55:50.776Z,91.50
2018-05-24T21:58:18.436Z,91.20
2018-05-24T22:00:50.772Z,91.10
2018-05-24T22:03:18.306Z,91.10
2018-05-24T22:05:45.810Z,91.00
2018-05-24T22:08:13.340Z,90.90
2018-05-24T22:10:40.864Z,90.70
2018-05-24T22:13:08.410Z,90.50
2018-05-24T22:15:35.926Z,90.50
2018-05-24T22:18:03.458Z,90.50
2018-05-24T22:20:31.374Z,90.70
2018-05-24T22:22:58.914Z,90.70
2018-05-24T22:25:26.425Z,90.80
2018-05-24T22:27:54.437Z,90.80
2018-05-24T22:30:21.944Z,90.80
2018-05-24T22:32:49.489Z,90.70
2018-05-24T22:35:17.198Z,90.60
2018-05-24T22:37:44.721Z,90.70
2018-05-24T22:40:12.759Z,90.60
2018-05-24T22:42:40.303Z,90.60
2018-05-24T22:45:07.809Z,90.60
2018-05-24T22:47:35.309Z,90.50
2018-05-24T22:50:02.846Z,90.50
2018-05-24T22:52:30.354Z,90.60
2018-05-24T22:54:57.877Z,90.60
2018-05-24T22:57:26.082Z,90.80
2018-05-24T22:59:53.613Z,90.60
2018-05-24T23:02:21.125Z,90.60
2018-05-24T23:04:48.649Z,90.50
2018-05-24T23:07:18.476Z,90.40
2018-05-24T23:09:46.402Z,90.40
2018-05-24T23:12:13.896Z,90.40
2018-05-24T23:14:41.425Z,90.50
2018-05-24T23:17:09.043Z,90.50
2018-05-24T23:19:36.935Z,90.60
2018-05-24T23:22:04.441Z,90.60
2018-05-24T23:24:32.005Z,90.50
2018-05-24T23:27:00.663Z,90.30
2018-05-24T23:29:28.193Z,90.40
2018-05-24T23:31:55.698Z,90.50
2018-05-24T23:34:23.226Z,90.50
2018-05-24T23:36:50.929Z,90.50
2018-05-24T23:39:18.461Z,90.50
2018-05-24T23:41:46.029Z,90.60
2018-05-24T23:44:13.685Z,90.60
2018-05-24T23:46:41.197Z,90.60
2018-05-24T23:49:08.733Z,90.50
2018-05-24T23:51:36.249Z,90.50
2018-05-24T23:54:03.777Z,90.70
2018-05-24T23:56:31.677Z,90.70
2018-05-24T23:58:59.218Z,90.70
